createdAt,value
2023-05-18T00:00:02.661Z,6.20
2023-05-18T00:02:29.795Z,6.30
2023-05-18T00:04:57.127Z,6.20
2023-05-18T00:07:24.257Z,6.20
2023-05-18T00:09:51.223Z,6.20
2023-05-18T00:12:18.576Z,6.20
2023-05-18T00:14:45.501Z,6.30
2023-05-18T00:17:14.991Z,6.20
2023-05-18T00:19:42.100Z,6.20
2023-05-18T00:22:09.094Z,6.20
2023-05-18T00:24:37.114Z,6.10
2023-05-18T00:27:04.338Z,6.10
2023-05-18T00:29:31.336Z,6.20
2023-05-18T00:31:58.404Z,6.20
2023-05-18T00:34:25.685Z,6.20
2023-05-18T00:36:52.567Z,6.20
2023-05-18T00:39:19.735Z,6.10
2023-05-18T00:41:46.689Z,6.10
2023-05-18T00:44:13.752Z,6.10
2023-05-18T00:46:41.726Z,6.10
2023-05-18T00:49:08.818Z,6.10
2023-05-18T00:51:36.021Z,6.20
2023-05-18T00:54:04.719Z,6.20
2023-05-18T00:56:34.477Z,6.20
2023-05-18T00:59:02.317Z,6.30
2023-05-18T01:01:37.055Z,6.30
2023-05-18T01:04:04.776Z,6.40
2023-05-18T01:06:35.978Z,6.40
2023-05-18T01:09:07.121Z,6.40
2023-05-18T01:11:36.968Z,6.40
2023-05-18T01:14:34.415Z,6.40
2023-05-18T01:17:40.294Z,6.40
2023-05-18T01:20:19.452Z,6.50
2023-05-18T01:23:20.599Z,6.60
2023-05-18T01:26:01.140Z,6.40
2023-05-18T01:28:33.496Z,6.40
2023-05-18T01:31:01.688Z,6.40
2023-05-18T01:33:28.727Z,6.40
2023-05-18T01:35:55.722Z,6.50
2023-05-18T01:38:28.664Z,6.40
2023-05-18T01:41:10.579Z,6.40
2023-05-18T01:43:42.961Z,6.40
2023-05-18T01:46:16.340Z,6.40
2023-05-18T01:48:48.675Z,6.40
2023-05-18T01:51:18.731Z,6.30
2023-05-18T01:53:53.404Z,6.30
2023-05-18T01:56:21.793Z,6.30
2023-05-18T01:58:49.749Z,6.20
2023-05-18T02:01:20.183Z,6.10
2023-05-18T02:03:47.309Z,6.00
2023-05-18T02:06:14.468Z,6.00
2023-05-18T02:08:41.652Z,6.00
2023-05-18T02:11:08.616Z,5.90
2023-05-18T02:13:35.519Z,5.90
2023-05-18T02:16:04.391Z,5.80
2023-05-18T02:18:34.190Z,5.90
2023-05-18T02:21:01.508Z,5.80
2023-05-18T02:23:28.425Z,5.80
2023-05-18T02:25:55.548Z,5.70
2023-05-18T02:28:23.366Z,5.70
2023-05-18T02:30:50.348Z,5.60
2023-05-18T02:33:19.691Z,5.60
2023-05-18T02:35:46.744Z,5.60
2023-05-18T02:38:13.809Z,5.50
2023-05-18T02:40:40.770Z,5.50
2023-05-18T02:43:07.700Z,5.50
2023-05-18T02:45:34.715Z,5.60
2023-05-18T02:48:01.708Z,5.50
2023-05-18T02:50:28.742Z,5.50
2023-05-18T02:52:55.993Z,5.50
2023-05-18T02:55:22.916Z,5.50
2023-05-18T02:57:56.976Z,5.50
2023-05-18T03:00:24.185Z,5.40
2023-05-18T03:02:51.131Z,5.30
2023-05-18T03:05:18.694Z,5.30
2023-05-18T03:07:50.945Z,5.30
2023-05-18T03:10:21.809Z,5.30
2023-05-18T03:12:49.226Z,5.30
2023-05-18T03:15:19.669Z,5.20
2023-05-18T03:17:46.943Z,5.20
2023-05-18T03:20:16.854Z,5.20
2023-05-18T03:22:43.814Z,5.30
2023-05-18T03:25:10.838Z,5.30
2023-05-18T03:27:38.042Z,5.30
2023-05-18T03:30:05.461Z,5.30
2023-05-18T03:32:33.329Z,5.30
2023-05-18T03:35:01.244Z,5.20
2023-05-18T03:37:28.252Z,5.20
2023-05-18T03:39:59.236Z,5.20
2023-05-18T03:42:26.228Z,5.20
2023-05-18T03:44:53.128Z,5.30
2023-05-18T03:47:22.229Z,5.20
2023-05-18T03:49:49.193Z,5.20
2023-05-18T03:52:22.289Z,5.20
2023-05-18T03:54:49.881Z,5.20
2023-05-18T03:57:19.899Z,5.30
2023-05-18T03:59:46.870Z,5.30
2023-05-18T04:02:13.938Z,5.30
2023-05-18T04:04:46.290Z,5.30
2023-05-18T04:07:16.720Z,5.40
2023-05-18T04:09:44.680Z,5.40
2023-05-18T04:12:11.837Z,5.40
2023-05-18T04:14:39.058Z,5.50
2023-05-18T04:17:06.745Z,5.50
2023-05-18T04:19:38.003Z,5.60
2023-05-18T04:22:07.037Z,5.60
2023-05-18T04:24:34.987Z,5.70
2023-05-18T04:27:03.136Z,5.80
2023-05-18T04:29:30.406Z,5.90
2023-05-18T04:32:01.101Z,6.00
2023-05-18T04:34:29.629Z,6.10
2023-05-18T04:36:59.139Z,6.20
2023-05-18T04:39:26.181Z,6.40
2023-05-18T04:41:58.529Z,6.50
2023-05-18T04:44:27.549Z,6.70
2023-05-18T04:46:57.715Z,6.80
2023-05-18T04:49:26.249Z,6.90
2023-05-18T04:51:58.230Z,7.00
2023-05-18T04:54:32.659Z,7.10
2023-05-18T04:56:59.939Z,7.30
2023-05-18T04:59:29.072Z,7.30
2023-05-18T05:01:56.394Z,7.50
2023-05-18T05:04:23.951Z,7.50
2023-05-18T05:06:51.024Z,7.60
2023-05-18T05:09:18.110Z,7.80
2023-05-18T05:11:45.226Z,7.90
2023-05-18T05:14:12.372Z,8.00
2023-05-18T05:16:40.025Z,8.20
2023-05-18T05:19:07.302Z,8.30
2023-05-18T05:21:34.328Z,8.40
2023-05-18T05:24:05.039Z,8.50
2023-05-18T05:26:32.041Z,8.60
2023-05-18T05:28:58.956Z,8.70
2023-05-18T05:31:25.989Z,8.80
2023-05-18T05:33:52.986Z,8.80
2023-05-18T05:36:19.873Z,9.00
2023-05-18T05:38:46.757Z,9.10
2023-05-18T05:41:13.888Z,9.10
2023-05-18T05:43:40.880Z,9.20
2023-05-18T05:46:07.827Z,9.30
2023-05-18T05:48:34.769Z,9.40
2023-05-18T05:51:01.711Z,9.50
2023-05-18T05:53:29.840Z,9.60
2023-05-18T05:55:56.948Z,9.70
2023-05-18T05:58:23.902Z,9.80
2023-05-18T06:00:51.127Z,9.90
2023-05-18T06:03:18.204Z,10.00
2023-05-18T06:05:46.043Z,10.10
2023-05-18T06:08:13.038Z,10.20
2023-05-18T06:10:41.362Z,10.30
2023-05-18T06:13:08.512Z,10.40
2023-05-18T06:15:35.542Z,10.50
2023-05-18T06:18:02.641Z,10.60
2023-05-18T06:20:29.852Z,10.70
2023-05-18T06:22:57.580Z,10.80
2023-05-18T06:25:24.482Z,10.80
2023-05-18T06:27:52.159Z,11.00
2023-05-18T06:30:19.130Z,11.10
2023-05-18T06:32:46.035Z,11.20
2023-05-18T06:35:13.111Z,11.30
2023-05-18T06:37:40.183Z,11.40
2023-05-18T06:40:08.634Z,11.40
2023-05-18T06:42:36.579Z,11.40
2023-05-18T06:45:04.430Z,11.60
2023-05-18T06:47:31.312Z,11.70
2023-05-18T06:49:58.509Z,11.80
2023-05-18T06:52:27.066Z,11.80
2023-05-18T06:54:54.287Z,11.80
2023-05-18T06:57:21.307Z,11.90
2023-05-18T06:59:54.026Z,11.90
2023-05-18T07:02:21.606Z,12.00
2023-05-18T07:04:49.530Z,12.10
2023-05-18T07:07:19.599Z,12.20
2023-05-18T07:09:49.544Z,12.30
2023-05-18T07:12:16.455Z,12.40
2023-05-18T07:14:43.502Z,12.50
2023-05-18T07:17:10.597Z,12.60
2023-05-18T07:19:37.548Z,12.60
2023-05-18T07:22:04.759Z,12.70
2023-05-18T07:24:31.719Z,12.70
2023-05-18T07:27:00.797Z,12.70
2023-05-18T07:29:28.900Z,12.80
2023-05-18T07:31:55.819Z,12.90
2023-05-18T07:34:23.747Z,13.00
2023-05-18T07:36:50.737Z,13.10
2023-05-18T07:39:19.786Z,13.10
2023-05-18T07:41:48.484Z,13.20
2023-05-18T07:44:16.201Z,13.20
2023-05-18T07:46:43.652Z,13.40
2023-05-18T07:49:10.679Z,13.50
2023-05-18T07:51:37.574Z,13.60
2023-05-18T07:54:05.511Z,13.70
2023-05-18T07:56:32.441Z,16.10
2023-05-18T07:58:59.399Z,13.80
2023-05-18T08:01:28.361Z,13.80
2023-05-18T08:03:55.375Z,13.90
2023-05-18T08:06:22.524Z,14.10
2023-05-18T08:08:49.555Z,14.20
2023-05-18T08:11:16.423Z,14.30
2023-05-18T08:13:43.358Z,14.30
2023-05-18T08:16:11.702Z,14.30
2023-05-18T08:18:39.809Z,14.40
2023-05-18T08:21:10.273Z,14.40
2023-05-18T08:23:37.764Z,14.50
2023-05-18T08:26:04.976Z,14.60
2023-05-18T08:28:32.281Z,14.80
2023-05-18T08:30:59.331Z,14.90
2023-05-18T08:33:26.706Z,15.00
2023-05-18T08:35:54.041Z,14.90
2023-05-18T08:38:21.097Z,14.90
2023-05-18T08:40:54.842Z,14.80
2023-05-18T08:43:30.070Z,14.90
2023-05-18T08:46:05.184Z,15.00
2023-05-18T08:48:33.568Z,15.20
2023-05-18T08:51:03.692Z,15.30
2023-05-18T08:53:33.971Z,15.30
2023-05-18T08:56:01.595Z,15.30
2023-05-18T08:58:44.788Z,15.40
2023-05-18T09:01:12.300Z,15.40
2023-05-18T09:03:40.814Z,15.60
2023-05-18T09:06:07.977Z,15.60
2023-05-18T09:08:35.579Z,15.70
2023-05-18T09:11:03.641Z,15.80
2023-05-18T09:13:30.858Z,15.80
2023-05-18T09:15:57.863Z,15.80
2023-05-18T09:18:26.841Z,15.70
2023-05-18T09:20:55.329Z,15.60
2023-05-18T09:23:22.460Z,15.70
2023-05-18T09:25:50.117Z,15.70
2023-05-18T09:28:31.188Z,15.70
2023-05-18T09:30:58.206Z,15.70
2023-05-18T09:33:25.373Z,15.90
2023-05-18T09:35:52.823Z,15.90
2023-05-18T09:38:23.329Z,16.00
2023-05-18T09:40:50.980Z,16.00
2023-05-18T09:43:19.173Z,16.10
2023-05-18T09:45:49.010Z,16.20
2023-05-18T09:48:17.193Z,16.30
2023-05-18T09:50:45.649Z,16.30
2023-05-18T09:53:14.760Z,16.40
2023-05-18T09:55:50.275Z,16.30
2023-05-18T09:58:17.879Z,16.20
2023-05-18T10:00:51.986Z,16.20
2023-05-18T10:03:20.231Z,16.10
2023-05-18T10:05:48.034Z,16.10
2023-05-18T10:08:16.162Z,16.20
2023-05-18T10:10:45.608Z,16.20
2023-05-18T10:13:19.106Z,16.30
2023-05-18T10:15:52.487Z,16.30
2023-05-18T10:18:24.319Z,16.40
2023-05-18T10:20:53.996Z,16.50
2023-05-18T10:23:22.761Z,16.60
2023-05-18T10:25:50.900Z,16.60
2023-05-18T10:28:28.858Z,16.70
2023-05-18T10:30:58.506Z,16.70
2023-05-18T10:33:29.902Z,16.70
2023-05-18T10:35:57.798Z,16.60
2023-05-18T10:38:28.544Z,16.60
2023-05-18T10:40:57.629Z,16.60
2023-05-18T10:43:28.110Z,16.60
2023-05-18T10:45:57.490Z,16.60
2023-05-18T10:48:25.695Z,16.60
2023-05-18T10:50:54.916Z,16.50
2023-05-18T10:53:32.289Z,16.50
2023-05-18T10:55:59.962Z,16.50
2023-05-18T10:58:28.997Z,16.50
2023-05-18T11:00:59.514Z,16.60
2023-05-18T11:03:27.711Z,16.70
2023-05-18T11:06:10.566Z,16.90
2023-05-18T11:08:50.927Z,16.90
2023-05-18T11:11:19.535Z,17.00
2023-05-18T11:13:51.628Z,17.00
2023-05-18T11:16:20.032Z,17.20
2023-05-18T11:18:51.099Z,17.10
2023-05-18T11:21:23.957Z,17.20
2023-05-18T11:24:30.266Z,17.10
2023-05-18T11:27:19.602Z,16.90
2023-05-18T11:29:51.920Z,16.80
2023-05-18T11:32:29.890Z,16.90
2023-05-18T11:34:58.728Z,16.80
2023-05-18T11:37:45.052Z,17.00
2023-05-18T11:40:13.905Z,17.00
2023-05-18T11:42:41.008Z,17.10
2023-05-18T11:45:08.667Z,17.30
2023-05-18T11:47:42.898Z,17.40
2023-05-18T11:50:14.430Z,17.20
2023-05-18T11:52:57.366Z,16.90
2023-05-18T11:55:38.195Z,16.90
2023-05-18T11:58:09.327Z,16.90
2023-05-18T12:00:37.671Z,17.00
2023-05-18T12:03:06.796Z,17.00
2023-05-18T12:05:35.965Z,17.00
2023-05-18T12:08:04.021Z,17.00
2023-05-18T12:10:32.305Z,17.10
2023-05-18T12:12:59.553Z,17.20
2023-05-18T12:15:28.866Z,17.10
2023-05-18T12:17:58.559Z,17.10
2023-05-18T12:20:26.691Z,16.90
2023-05-18T12:22:54.984Z,16.90
2023-05-18T12:25:23.984Z,16.80
2023-05-18T12:27:53.181Z,16.70
2023-05-18T12:30:25.927Z,16.70
2023-05-18T12:32:57.536Z,16.40
2023-05-18T12:35:28.401Z,16.40
2023-05-18T12:37:58.116Z,16.40
2023-05-18T12:40:25.346Z,16.40
2023-05-18T12:42:53.123Z,16.50
2023-05-18T12:45:32.312Z,16.40
2023-05-18T12:48:10.627Z,16.50
2023-05-18T12:50:49.773Z,16.30
2023-05-18T12:53:17.845Z,16.30
2023-05-18T12:55:45.431Z,16.30
2023-05-18T12:58:19.983Z,16.40
2023-05-18T13:00:48.630Z,16.50
2023-05-18T13:03:18.516Z,16.40
2023-05-18T13:06:01.576Z,16.40
2023-05-18T13:08:28.641Z,16.30
2023-05-18T13:11:12.868Z,16.30
2023-05-18T13:14:01.459Z,16.40
2023-05-18T13:16:30.661Z,16.50
2023-05-18T13:19:02.688Z,16.50
2023-05-18T13:21:30.277Z,16.50
2023-05-18T13:23:57.453Z,16.60
2023-05-18T13:26:25.277Z,16.60
2023-05-18T13:28:54.300Z,16.60
2023-05-18T13:31:22.472Z,16.70
2023-05-18T13:33:50.190Z,16.60
2023-05-18T13:36:18.099Z,16.50
2023-05-18T13:38:45.067Z,16.40
2023-05-18T13:41:14.866Z,16.30
2023-05-18T13:43:42.981Z,16.20
2023-05-18T13:46:10.231Z,16.20
2023-05-18T13:48:37.539Z,16.20
2023-05-18T13:51:04.636Z,16.10
2023-05-18T13:53:31.727Z,16.10
2023-05-18T13:55:58.713Z,16.00
2023-05-18T13:58:25.795Z,16.10
2023-05-18T14:00:54.511Z,16.10
2023-05-18T14:03:21.840Z,15.90
2023-05-18T14:05:49.341Z,16.00
2023-05-18T14:08:16.239Z,16.00
2023-05-18T14:10:43.325Z,16.00
2023-05-18T14:13:10.257Z,16.00
2023-05-18T14:15:37.296Z,16.10
2023-05-18T14:18:04.602Z,16.00
2023-05-18T14:20:32.057Z,15.70
2023-05-18T14:23:00.270Z,15.70
2023-05-18T14:25:27.453Z,15.70
2023-05-18T14:27:54.411Z,15.90
2023-05-18T14:30:21.373Z,16.00
2023-05-18T14:32:48.359Z,16.00
2023-05-18T14:35:15.462Z,16.00
2023-05-18T14:37:42.442Z,15.90
2023-05-18T14:40:09.843Z,15.60
2023-05-18T14:42:37.223Z,15.50
2023-05-18T14:45:05.115Z,15.40
2023-05-18T14:47:32.280Z,15.40
2023-05-18T14:49:59.369Z,15.30
2023-05-18T14:52:26.347Z,15.20
2023-05-18T14:54:53.377Z,15.10
2023-05-18T14:57:20.734Z,15.00
2023-05-18T14:59:47.656Z,15.00
2023-05-18T15:02:14.714Z,15.00
2023-05-18T15:04:41.705Z,15.10
2023-05-18T15:07:08.747Z,15.10
2023-05-18T15:09:35.816Z,15.10
2023-05-18T15:12:03.089Z,15.20
2023-05-18T15:14:30.212Z,15.30
2023-05-18T15:16:58.734Z,15.20
2023-05-18T15:19:25.875Z,15.40
2023-05-18T15:21:52.936Z,15.40
2023-05-18T15:24:19.906Z,15.40
2023-05-18T15:26:46.874Z,15.20
2023-05-18T15:29:13.833Z,15.20
2023-05-18T15:31:41.006Z,15.20
2023-05-18T15:34:07.978Z,15.20
2023-05-18T15:36:36.444Z,15.20
2023-05-18T15:39:05.039Z,15.30
2023-05-18T15:41:35.509Z,15.30
2023-05-18T15:44:02.494Z,15.40
2023-05-18T15:46:37.975Z,15.40
2023-05-18T15:49:04.896Z,15.40
2023-05-18T15:51:32.123Z,15.40
2023-05-18T15:53:59.269Z,15.40
2023-05-18T15:56:26.397Z,15.40
2023-05-18T15:58:53.373Z,15.40
2023-05-18T16:01:20.323Z,15.30
2023-05-18T16:03:47.427Z,15.30
2023-05-18T16:06:14.617Z,15.20
2023-05-18T16:08:41.582Z,15.10
2023-05-18T16:11:08.484Z,15.00
2023-05-18T16:13:35.411Z,14.90
2023-05-18T16:16:03.810Z,14.80
2023-05-18T16:18:30.822Z,14.70
2023-05-18T16:20:57.889Z,14.70
2023-05-18T16:23:24.915Z,14.60
2023-05-18T16:25:51.833Z,14.50
2023-05-18T16:28:18.800Z,14.40
2023-05-18T16:30:45.836Z,14.30
2023-05-18T16:33:12.962Z,14.30
2023-05-18T16:35:39.999Z,14.20
2023-05-18T16:38:07.517Z,14.10
2023-05-18T16:40:34.706Z,14.00
2023-05-18T16:43:01.774Z,13.90
2023-05-18T16:45:28.749Z,13.90
2023-05-18T16:47:56.049Z,13.80
2023-05-18T16:50:23.159Z,13.70
2023-05-18T16:52:50.205Z,13.70
2023-05-18T16:55:17.290Z,13.60
2023-05-18T16:57:44.307Z,13.50
2023-05-18T17:00:11.844Z,13.50
2023-05-18T17:02:40.179Z,13.50
2023-05-18T17:05:08.667Z,13.50
2023-05-18T17:07:36.495Z,13.40
2023-05-18T17:10:05.346Z,13.40
2023-05-18T17:12:33.662Z,13.30
2023-05-18T17:15:02.746Z,13.30
2023-05-18T17:17:29.907Z,13.20
2023-05-18T17:19:56.911Z,13.20
2023-05-18T17:22:23.950Z,13.20
2023-05-18T17:24:50.976Z,13.10
2023-05-18T17:27:18.007Z,13.00
2023-05-18T17:29:44.930Z,13.00
2023-05-18T17:32:11.955Z,13.00
2023-05-18T17:34:40.419Z,13.10
2023-05-18T17:37:07.538Z,13.10
2023-05-18T17:39:34.538Z,13.20
2023-05-18T17:42:01.914Z,13.10
2023-05-18T17:44:29.024Z,12.90
2023-05-18T17:46:57.396Z,12.90
2023-05-18T17:49:24.739Z,12.90
2023-05-18T17:51:52.482Z,12.80
2023-05-18T17:54:19.678Z,12.80
2023-05-18T17:56:46.781Z,12.80
2023-05-18T17:59:13.854Z,12.90
2023-05-18T18:01:40.972Z,12.70
2023-05-18T18:04:08.085Z,12.70
2023-05-18T18:06:36.003Z,12.60
2023-05-18T18:09:05.294Z,12.60
2023-05-18T18:11:32.729Z,12.60
2023-05-18T18:14:00.039Z,12.60
2023-05-18T18:16:27.083Z,12.70
2023-05-18T18:18:54.398Z,12.60
2023-05-18T18:21:21.463Z,12.60
2023-05-18T18:23:48.450Z,12.60
2023-05-18T18:26:15.508Z,12.50
2023-05-18T18:28:42.450Z,12.50
2023-05-18T18:31:09.481Z,12.40
2023-05-18T18:33:36.514Z,12.30
2023-05-18T18:36:05.816Z,12.20
2023-05-18T18:38:34.047Z,12.10
2023-05-18T18:41:04.415Z,12.00
2023-05-18T18:43:31.848Z,12.00
2023-05-18T18:45:59.567Z,11.90
2023-05-18T18:48:26.995Z,11.90
2023-05-18T18:50:54.351Z,11.90
2023-05-18T18:53:21.580Z,11.80
2023-05-18T18:55:48.663Z,11.80
2023-05-18T18:58:16.066Z,11.70
2023-05-18T19:00:43.112Z,11.60
2023-05-18T19:03:10.254Z,11.60
2023-05-18T19:05:37.564Z,11.60
2023-05-18T19:08:04.801Z,11.50
2023-05-18T19:10:33.042Z,11.50
2023-05-18T19:13:04.983Z,11.50
2023-05-18T19:15:36.697Z,11.40
2023-05-18T19:18:04.028Z,11.40
2023-05-18T19:20:31.054Z,11.30
2023-05-18T19:22:58.141Z,11.30
2023-05-18T19:25:26.295Z,11.20
2023-05-18T19:27:54.135Z,11.20
2023-05-18T19:30:22.827Z,11.10
2023-05-18T19:32:51.605Z,11.10
2023-05-18T19:35:23.849Z,11.00
2023-05-18T19:37:51.974Z,11.00
2023-05-18T19:40:19.235Z,11.00
2023-05-18T19:42:46.185Z,11.00
2023-05-18T19:45:13.246Z,10.90
2023-05-18T19:47:40.379Z,10.80
2023-05-18T19:50:08.217Z,10.80
2023-05-18T19:52:35.195Z,10.60
2023-05-18T19:55:02.678Z,10.50
2023-05-18T19:57:29.854Z,10.50
2023-05-18T19:59:57.995Z,10.50
2023-05-18T20:02:25.156Z,10.40
2023-05-18T20:04:53.535Z,10.40
2023-05-18T20:07:20.767Z,10.30
2023-05-18T20:09:47.979Z,10.30
2023-05-18T20:12:14.953Z,10.20
2023-05-18T20:14:43.531Z,10.30
2023-05-18T20:17:10.539Z,10.20
2023-05-18T20:19:37.898Z,10.20
2023-05-18T20:22:05.343Z,10.20
2023-05-18T20:24:32.708Z,10.10
2023-05-18T20:26:59.912Z,10.10
2023-05-18T20:29:27.092Z,10.10
2023-05-18T20:31:54.850Z,10.00
2023-05-18T20:34:22.007Z,10.00
2023-05-18T20:36:49.052Z,10.00
2023-05-18T20:39:16.125Z,10.00
2023-05-18T20:41:43.237Z,10.00
2023-05-18T20:44:11.663Z,10.00
2023-05-18T20:46:42.547Z,10.00
2023-05-18T20:49:13.029Z,9.90
2023-05-18T20:51:40.083Z,9.90
2023-05-18T20:54:07.474Z,9.90
2023-05-18T20:56:36.122Z,9.80
2023-05-18T20:59:06.120Z,9.70
2023-05-18T21:01:39.169Z,9.70
2023-05-18T21:04:06.658Z,9.70
2023-05-18T21:06:34.519Z,9.60
2023-05-18T21:09:01.798Z,9.60
2023-05-18T21:11:28.772Z,9.50
2023-05-18T21:13:55.804Z,9.50
2023-05-18T21:16:22.847Z,9.50
2023-05-18T21:18:49.840Z,9.50
2023-05-18T21:21:16.786Z,9.50
2023-05-18T21:23:44.587Z,9.50
2023-05-18T21:26:11.597Z,9.50
2023-05-18T21:28:38.582Z,9.50
2023-05-18T21:31:05.879Z,9.40
2023-05-18T21:33:32.907Z,9.50
2023-05-18T21:36:01.719Z,9.40
2023-05-18T21:38:28.954Z,9.40
2023-05-18T21:40:56.693Z,9.30
2023-05-18T21:43:24.166Z,9.30
2023-05-18T21:45:51.248Z,9.20
2023-05-18T21:48:18.209Z,9.20
2023-05-18T21:50:45.117Z,9.10
2023-05-18T21:53:12.138Z,9.10
2023-05-18T21:55:39.139Z,9.00
2023-05-18T21:58:06.204Z,8.80
2023-05-18T22:00:35.433Z,8.70
2023-05-18T22:03:02.680Z,8.60
2023-05-18T22:05:29.721Z,8.50
2023-05-18T22:07:59.146Z,8.40
2023-05-18T22:10:26.278Z,8.40
2023-05-18T22:12:53.245Z,8.30
2023-05-18T22:15:22.439Z,8.20
2023-05-18T22:17:49.777Z,8.20
2023-05-18T22:20:17.285Z,8.10
2023-05-18T22:22:44.444Z,8.00
2023-05-18T22:25:11.630Z,8.00
2023-05-18T22:27:39.004Z,7.90
2023-05-18T22:30:07.348Z,7.90
2023-05-18T22:32:34.566Z,7.80
2023-05-18T22:35:02.072Z,7.80
2023-05-18T22:37:29.003Z,7.70
2023-05-18T22:39:55.922Z,7.70
2023-05-18T22:42:22.965Z,7.60
2023-05-18T22:44:49.930Z,7.50
2023-05-18T22:47:20.150Z,7.50
2023-05-18T22:49:47.941Z,7.50
2023-05-18T22:52:16.515Z,7.50
2023-05-18T22:54:43.620Z,7.40
2023-05-18T22:57:10.758Z,7.40
2023-05-18T22:59:37.908Z,7.30
2023-05-18T23:02:05.782Z,7.30
2023-05-18T23:04:34.108Z,7.30
2023-05-18T23:07:01.968Z,7.30
2023-05-18T23:09:30.558Z,7.30
2023-05-18T23:11:59.710Z,7.30
2023-05-18T23:14:32.507Z,7.20
2023-05-18T23:17:00.324Z,7.20
2023-05-18T23:19:27.595Z,7.20
2023-05-18T23:21:55.262Z,7.20
2023-05-18T23:24:22.479Z,7.20
2023-05-18T23:26:49.495Z,7.10
2023-05-18T23:29:16.572Z,7.10
2023-05-18T23:31:43.609Z,7.10
2023-05-18T23:34:11.264Z,7.10
2023-05-18T23:36:39.869Z,7.10
2023-05-18T23:39:07.386Z,7.10
2023-05-18T23:41:35.881Z,7.10
2023-05-18T23:44:03.472Z,7.00
2023-05-18T23:46:31.821Z,7.00
2023-05-18T23:48:59.966Z,7.00
2023-05-18T23:51:32.020Z,7.00
2023-05-18T23:53:59.453Z,7.00
2023-05-18T23:56:26.752Z,7.00
2023-05-18T23:58:53.945Z,7.00
